sensor_id;sensor_type;location;lat;lon;timestamp;pressure;altitude;pressure_sealevel;temperature;humidity
58875;BME280;44652;49.040;12.126;2023-11-18T11:38:15;98446.00;;;5.79;90.31
58875;BME280;44652;49.040;12.126;2023-11-18T11:40:44;98432.03;;;5.78;90.35
58875;BME280;44652;49.040;12.126;2023-11-18T11:43:12;98436.97;;;5.89;89.00
58875;BME280;44652;49.040;12.126;2023-11-18T11:45:50;98455.25;;;6.33;87.67
58875;BME280;44652;49.040;12.126;2023-11-18T11:48:23;98418.28;;;6.12;88.40
58875;BME280;44652;49.040;12.126;2023-11-18T11:51:19;98444.47;;;6.12;88.80
58875;BME280;44652;49.040;12.126;2023-11-18T11:54:00;98423.25;;;6.39;88.14
58875;BME280;44652;49.040;12.126;2023-11-18T11:56:44;98395.09;;;6.18;87.80
58875;BME280;44652;49.040;12.126;2023-11-18T11:59:16;98399.53;;;6.04;89.60
58875;BME280;44652;49.040;12.126;2023-11-18T12:01:43;98402.59;;;6.12;88.25
58875;BME280;44652;49.040;12.126;2023-11-18T12:04:15;98423.50;;;6.43;89.03
58875;BME280;44652;49.040;12.126;2023-11-18T12:06:48;98414.69;;;6.57;87.67
58875;BME280;44652;49.040;12.126;2023-11-18T12:09:32;98411.00;;;6.70;85.34
58875;BME280;44652;49.040;12.126;2023-11-18T12:12:05;98412.59;;;6.83;86.96
58875;BME280;44652;49.040;12.126;2023-11-18T12:20:40;98403.09;;;7.01;86.30
58875;BME280;44652;49.040;12.126;2023-11-18T12:23:14;98392.09;;;6.92;85.53
58875;BME280;44652;49.040;12.126;2023-11-18T12:25:42;98397.28;;;6.74;86.63
58875;BME280;44652;49.040;12.126;2023-11-18T12:28:11;98350.59;;;6.51;87.38
58875;BME280;44652;49.040;12.126;2023-11-18T12:30:38;98379.03;;;6.76;88.13
58875;BME280;44652;49.040;12.126;2023-11-18T12:33:09;98368.97;;;6.67;86.86
58875;BME280;44652;49.040;12.126;2023-11-18T12:41:36;98348.06;;;6.85;88.18
58875;BME280;44652;49.040;12.126;2023-11-18T12:46:53;98337.78;;;6.72;87.19
58875;BME280;44652;49.040;12.126;2023-11-18T12:49:23;98341.22;;;6.38;89.23
58875;BME280;44652;49.040;12.126;2023-11-18T12:51:54;98322.88;;;6.54;88.12
58875;BME280;44652;49.040;12.126;2023-11-18T12:54:23;98292.00;;;6.00;90.59
58875;BME280;44652;49.040;12.126;2023-11-18T12:56:51;98309.56;;;6.33;91.12
58875;BME280;44652;49.040;12.126;2023-11-18T12:59:20;98300.28;;;6.07;91.29
58875;BME280;44652;49.040;12.126;2023-11-18T13:01:47;98314.44;;;6.11;92.09
58875;BME280;44652;49.040;12.126;2023-11-18T13:04:24;98319.00;;;5.99;93.10
58875;BME280;44652;49.040;12.126;2023-11-18T13:06:51;98317.47;;;5.88;93.44
58875;BME280;44652;49.040;12.126;2023-11-18T13:09:22;98308.81;;;5.89;93.36
58875;BME280;44652;49.040;12.126;2023-11-18T13:11:56;98290.75;;;5.62;94.98
58875;BME280;44652;49.040;12.126;2023-11-18T13:14:28;98306.41;;;5.77;95.65
58875;BME280;44652;49.040;12.126;2023-11-18T13:16:57;98305.66;;;5.79;94.29
58875;BME280;44652;49.040;12.126;2023-11-18T13:19:28;98297.75;;;5.78;94.78
58875;BME280;44652;49.040;12.126;2023-11-18T13:22:01;98322.16;;;5.78;95.59
58875;BME280;44652;49.040;12.126;2023-11-18T13:24:38;98321.69;;;5.85;94.44
58875;BME280;44652;49.040;12.126;2023-11-18T13:27:18;98311.69;;;5.93;95.38
58875;BME280;44652;49.040;12.126;2023-11-18T13:29:47;98311.41;;;5.89;94.44
58875;BME280;44652;49.040;12.126;2023-11-18T13:32:18;98320.63;;;5.82;94.83
58875;BME280;44652;49.040;12.126;2023-11-18T13:34:50;98295.53;;;5.69;95.45
58875;BME280;44652;49.040;12.126;2023-11-18T13:37:18;98305.97;;;5.69;96.23
58875;BME280;44652;49.040;12.126;2023-11-18T13:39:55;98280.91;;;5.73;95.21
58875;BME280;44652;49.040;12.126;2023-11-18T13:42:24;98297.38;;;5.72;95.12
58875;BME280;44652;49.040;12.126;2023-11-18T13:44:52;98310.34;;;5.85;95.30
58875;BME280;44652;49.040;12.126;2023-11-18T13:47:20;98283.16;;;5.67;96.02
58875;BME280;44652;49.040;12.126;2023-11-18T13:49:49;98315.78;;;5.73;96.42
58875;BME280;44652;49.040;12.126;2023-11-18T13:52:17;98306.16;;;5.72;96.37
58875;BME280;44652;49.040;12.126;2023-11-18T13:54:46;98285.34;;;5.59;96.28
58875;BME280;44652;49.040;12.126;2023-11-18T13:57:14;98316.63;;;5.72;96.06
58875;BME280;44652;49.040;12.126;2023-11-18T13:59:41;98301.75;;;5.56;96.52
58875;BME280;44652;49.040;12.126;2023-11-18T14:02:10;98300.78;;;5.54;97.06
58875;BME280;44652;49.040;12.126;2023-11-18T14:04:38;98291.88;;;5.51;98.18
58875;BME280;44652;49.040;12.126;2023-11-18T14:07:05;98321.84;;;5.72;98.12
58875;BME280;44652;49.040;12.126;2023-11-18T14:09:32;98279.50;;;5.48;98.30
58875;BME280;44652;49.040;12.126;2023-11-18T14:12:08;98306.63;;;5.65;98.44
58875;BME280;44652;49.040;12.126;2023-11-18T14:14:35;98314.34;;;5.64;98.64
58875;BME280;44652;49.040;12.126;2023-11-18T14:17:06;98297.34;;;5.55;99.03
58875;BME280;44652;49.040;12.126;2023-11-18T14:19:33;98289.63;;;5.42;99.62
58875;BME280;44652;49.040;12.126;2023-11-18T14:22:03;98269.91;;;5.32;99.85
58875;BME280;44652;49.040;12.126;2023-11-18T14:24:33;98282.69;;;5.43;100.00
58875;BME280;44652;49.040;12.126;2023-11-18T14:27:00;98259.63;;;5.35;100.00
58875;BME280;44652;49.040;12.126;2023-11-18T14:29:27;98259.91;;;5.25;100.00
58875;BME280;44652;49.040;12.126;2023-11-18T14:31:55;98269.72;;;5.29;100.00
58875;BME280;44652;49.040;12.126;2023-11-18T14:34:22;98261.38;;;5.20;100.00
58875;BME280;44652;49.040;12.126;2023-11-18T14:36:52;98242.38;;;5.23;100.00
58875;BME280;44652;49.040;12.126;2023-11-18T14:39:18;98241.91;;;5.15;100.00
58875;BME280;44652;49.040;12.126;2023-11-18T14:41:50;98269.09;;;5.33;100.00
58875;BME280;44652;49.040;12.126;2023-11-18T14:44:17;98254.69;;;5.25;100.00
58875;BME280;44652;49.040;12.126;2023-11-18T14:46:44;98277.09;;;5.36;100.00
58875;BME280;44652;49.040;12.126;2023-11-18T14:49:12;98280.63;;;5.22;100.00
58875;BME280;44652;49.040;12.126;2023-11-18T14:51:39;98264.38;;;5.11;100.00
58875;BME280;44652;49.040;12.126;2023-11-18T14:54:06;98284.06;;;5.21;100.00
58875;BME280;44652;49.040;12.126;2023-11-18T14:56:33;98255.06;;;5.02;100.00
58875;BME280;44652;49.040;12.126;2023-11-18T14:59:01;98266.78;;;4.94;100.00
58875;BME280;44652;49.040;12.126;2023-11-18T15:01:31;98293.00;;;5.10;100.00
58875;BME280;44652;49.040;12.126;2023-11-18T15:03:58;98262.47;;;4.94;100.00
58875;BME280;44652;49.040;12.126;2023-11-18T15:06:26;98264.63;;;4.86;100.00
58875;BME280;44652;49.040;12.126;2023-11-18T15:08:53;98264.38;;;4.97;100.00
58875;BME280;44652;49.040;12.126;2023-11-18T15:11:24;98246.34;;;4.86;100.00
58875;BME280;44652;49.040;12.126;2023-11-18T15:13:51;98218.44;;;4.71;100.00
58875;BME280;44652;49.040;12.126;2023-11-18T15:16:20;98229.22;;;4.77;100.00
58875;BME280;44652;49.040;12.126;2023-11-18T15:18:47;98247.06;;;4.84;100.00
58875;BME280;44652;49.040;12.126;2023-11-18T15:21:14;98239.88;;;4.80;100.00
58875;BME280;44652;49.040;12.126;2023-11-18T15:23:42;98233.81;;;4.81;100.00
58875;BME280;44652;49.040;12.126;2023-11-18T15:26:09;98228.97;;;4.72;100.00
58875;BME280;44652;49.040;12.126;2023-11-18T15:28:36;98240.06;;;4.68;100.00
58875;BME280;44652;49.040;12.126;2023-11-18T15:31:03;98215.03;;;4.57;100.00
58875;BME280;44652;49.040;12.126;2023-11-18T15:33:31;98231.69;;;4.59;100.00
58875;BME280;44652;49.040;12.126;2023-11-18T15:35:58;98192.41;;;4.57;100.00
58875;BME280;44652;49.040;12.126;2023-11-18T15:38:25;98207.91;;;4.69;100.00
58875;BME280;44652;49.040;12.126;2023-11-18T15:40:52;98177.19;;;4.35;100.00
58875;BME280;44652;49.040;12.126;2023-11-18T15:43:20;98198.19;;;4.52;100.00
58875;BME280;44652;49.040;12.126;2023-11-18T15:45:48;98163.88;;;4.31;100.00
58875;BME280;44652;49.040;12.126;2023-11-18T15:48:15;98196.03;;;4.45;100.00
58875;BME280;44652;49.040;12.126;2023-11-18T15:50:42;98164.44;;;4.25;100.00
58875;BME280;44652;49.040;12.126;2023-11-18T15:53:09;98185.41;;;4.42;100.00
58875;BME280;44652;49.040;12.126;2023-11-18T15:55:40;98185.06;;;4.21;100.00
58875;BME280;44652;49.040;12.126;2023-11-18T15:58:10;98189.28;;;4.33;100.00
58875;BME280;44652;49.040;12.126;2023-11-18T16:00:36;98173.06;;;4.24;100.00
58875;BME280;44652;49.040;12.126;2023-11-18T16:03:04;98177.56;;;4.27;100.00
58875;BME280;44652;49.040;12.126;2023-11-18T16:05:35;98158.13;;;4.07;100.00
58875;BME280;44652;49.040;12.126;2023-11-18T16:08:03;98151.75;;;4.02;100.00
58875;BME280;44652;49.040;12.126;2023-11-18T16:10:31;98156.34;;;4.06;100.00
58875;BME280;44652;49.040;12.126;2023-11-18T16:12:59;98179.34;;;3.98;100.00
58875;BME280;44652;49.040;12.126;2023-11-18T16:15:28;98159.38;;;3.99;100.00
58875;BME280;44652;49.040;12.126;2023-11-18T16:17:56;98168.72;;;3.95;100.00
58875;BME280;44652;49.040;12.126;2023-11-18T16:20:26;98156.38;;;3.93;100.00
58875;BME280;44652;49.040;12.126;2023-11-18T16:22:54;98181.06;;;4.12;100.00
58875;BME280;44652;49.040;12.126;2023-11-18T16:25:25;98191.44;;;4.26;100.00
58875;BME280;44652;49.040;12.126;2023-11-18T16:27:55;98194.28;;;4.15;100.00
58875;BME280;44652;49.040;12.126;2023-11-18T16:30:26;98180.31;;;4.00;100.00
58875;BME280;44652;49.040;12.126;2023-11-18T16:32:58;98197.94;;;4.04;100.00
58875;BME280;44652;49.040;12.126;2023-11-18T16:35:25;98195.53;;;4.07;100.00
58875;BME280;44652;49.040;12.126;2023-11-18T16:37:53;98166.38;;;4.00;100.00
58875;BME280;44652;49.040;12.126;2023-11-18T16:40:20;98195.47;;;4.21;100.00
58875;BME280;44652;49.040;12.126;2023-11-18T16:42:50;98189.88;;;4.14;100.00
58875;BME280;44652;49.040;12.126;2023-11-18T16:45:17;98181.31;;;4.02;100.00
58875;BME280;44652;49.040;12.126;2023-11-18T16:47:47;98169.69;;;3.97;100.00
58875;BME280;44652;49.040;12.126;2023-11-18T16:50:20;98175.28;;;4.03;100.00
58875;BME280;44652;49.040;12.126;2023-11-18T16:52:47;98194.72;;;4.08;100.00
58875;BME280;44652;49.040;12.126;2023-11-18T16:55:14;98175.09;;;4.00;100.00
58875;BME280;44652;49.040;12.126;2023-11-18T16:57:41;98172.50;;;4.00;100.00
58875;BME280;44652;49.040;12.126;2023-11-18T17:00:09;98175.06;;;4.13;100.00
58875;BME280;44652;49.040;12.126;2023-11-18T17:02:46;98199.88;;;4.22;100.00
58875;BME280;44652;49.040;12.126;2023-11-18T17:05:14;98185.25;;;3.96;100.00
58875;BME280;44652;49.040;12.126;2023-11-18T17:07:41;98203.56;;;4.10;100.00
58875;BME280;44652;49.040;12.126;2023-11-18T17:10:08;98208.50;;;4.06;100.00
58875;BME280;44652;49.040;12.126;2023-11-18T17:12:40;98183.56;;;3.96;100.00
58875;BME280;44652;49.040;12.126;2023-11-18T17:15:07;98185.06;;;3.93;100.00
58875;BME280;44652;49.040;12.126;2023-11-18T17:17:40;98221.88;;;4.12;100.00
58875;BME280;44652;49.040;12.126;2023-11-18T17:20:07;98214.84;;;3.96;100.00
58875;BME280;44652;49.040;12.126;2023-11-18T17:22:38;98240.09;;;3.97;100.00
58875;BME280;44652;49.040;12.126;2023-11-18T17:25:10;98236.72;;;3.98;100.00
58875;BME280;44652;49.040;12.126;2023-11-18T17:27:40;98212.38;;;3.84;100.00
58875;BME280;44652;49.040;12.126;2023-11-18T17:30:07;98221.78;;;3.96;100.00
58875;BME280;44652;49.040;12.126;2023-11-18T17:32:42;98207.38;;;3.87;100.00
58875;BME280;44652;49.040;12.126;2023-11-18T17:35:10;98208.47;;;3.91;100.00
58875;BME280;44652;49.040;12.126;2023-11-18T17:37:45;98192.63;;;3.88;100.00
58875;BME280;44652;49.040;12.126;2023-11-18T17:40:13;98170.13;;;3.75;100.00
58875;BME280;44652;49.040;12.126;2023-11-18T17:42:42;98162.81;;;3.70;100.00
58875;BME280;44652;49.040;12.126;2023-11-18T17:45:10;98182.69;;;3.82;100.00
58875;BME280;44652;49.040;12.126;2023-11-18T17:47:38;98149.97;;;3.73;100.00
58875;BME280;44652;49.040;12.126;2023-11-18T17:50:09;98162.19;;;3.74;100.00
58875;BME280;44652;49.040;12.126;2023-11-18T17:52:38;98148.91;;;3.56;100.00
58875;BME280;44652;49.040;12.126;2023-11-18T17:55:11;98144.56;;;3.70;100.00
58875;BME280;44652;49.040;12.126;2023-11-18T17:57:42;98155.41;;;3.62;100.00
58875;BME280;44652;49.040;12.126;2023-11-18T18:00:11;98178.09;;;3.78;100.00
58875;BME280;44652;49.040;12.126;2023-11-18T18:02:47;98153.44;;;3.58;100.00
58875;BME280;44652;49.040;12.126;2023-11-18T18:05:14;98136.34;;;3.63;100.00
58875;BME280;44652;49.040;12.126;2023-11-18T18:07:41;98153.19;;;3.69;100.00
58875;BME280;44652;49.040;12.126;2023-11-18T18:10:09;98146.16;;;3.53;100.00
58875;BME280;44652;49.040;12.126;2023-11-18T18:12:36;98139.41;;;3.56;100.00
58875;BME280;44652;49.040;12.126;2023-11-18T18:15:04;98166.03;;;3.65;100.00
58875;BME280;44652;49.040;12.126;2023-11-18T18:17:35;98152.09;;;3.65;100.00
58875;BME280;44652;49.040;12.126;2023-11-18T18:20:04;98154.66;;;3.78;100.00
58875;BME280;44652;49.040;12.126;2023-11-18T18:22:36;98156.13;;;3.88;100.00
58875;BME280;44652;49.040;12.126;2023-11-18T18:25:03;98153.84;;;3.79;100.00
58875;BME280;44652;49.040;12.126;2023-11-18T18:27:30;98125.22;;;3.66;100.00
58875;BME280;44652;49.040;12.126;2023-11-18T18:29:59;98146.31;;;3.84;100.00
58875;BME280;44652;49.040;12.126;2023-11-18T18:32:26;98118.16;;;3.78;100.00
58875;BME280;44652;49.040;12.126;2023-11-18T18:34:53;98125.63;;;3.72;100.00
58875;BME280;44652;49.040;12.126;2023-11-18T18:37:20;98129.81;;;3.70;100.00
58875;BME280;44652;49.040;12.126;2023-11-18T18:39:49;98121.47;;;3.61;100.00
58875;BME280;44652;49.040;12.126;2023-11-18T18:42:22;98144.94;;;3.76;100.00
58875;BME280;44652;49.040;12.126;2023-11-18T18:44:48;98118.03;;;3.62;100.00
58875;BME280;44652;49.040;12.126;2023-11-18T18:47:15;98128.72;;;3.66;100.00
58875;BME280;44652;49.040;12.126;2023-11-18T18:49:42;98107.34;;;3.57;100.00
58875;BME280;44652;49.040;12.126;2023-11-18T18:52:09;98113.38;;;3.56;100.00
58875;BME280;44652;49.040;12.126;2023-11-18T18:54:36;98128.03;;;3.69;100.00
58875;BME280;44652;49.040;12.126;2023-11-18T18:57:02;98094.19;;;3.56;100.00
58875;BME280;44652;49.040;12.126;2023-11-18T18:59:32;98123.28;;;3.77;100.00
58875;BME280;44652;49.040;12.126;2023-11-18T19:01:59;98118.97;;;3.77;100.00
58875;BME280;44652;49.040;12.126;2023-11-18T19:04:26;98115.81;;;3.68;100.00
58875;BME280;44652;49.040;12.126;2023-11-18T19:06:53;98093.72;;;3.76;100.00
58875;BME280;44652;49.040;12.126;2023-11-18T19:09:21;98124.63;;;3.85;100.00
58875;BME280;44652;49.040;12.126;2023-11-18T19:11:48;98105.16;;;3.50;100.00
58875;BME280;44652;49.040;12.126;2023-11-18T19:14:15;98100.56;;;3.46;100.00
58875;BME280;44652;49.040;12.126;2023-11-18T19:16:42;98095.69;;;3.37;100.00
58875;BME280;44652;49.040;12.126;2023-11-18T19:19:09;98085.78;;;3.32;100.00
58875;BME280;44652;49.040;12.126;2023-11-18T19:21:36;98074.97;;;3.26;100.00
58875;BME280;44652;49.040;12.126;2023-11-18T19:24:03;98066.19;;;3.24;100.00
58875;BME280;44652;49.040;12.126;2023-11-18T19:26:30;98083.69;;;3.54;100.00
58875;BME280;44652;49.040;12.126;2023-11-18T19:29:02;98076.16;;;3.59;100.00
58875;BME280;44652;49.040;12.126;2023-11-18T19:31:30;98056.13;;;3.73;100.00
58875;BME280;44652;49.040;12.126;2023-11-18T19:33:56;98026.00;;;3.63;100.00
58875;BME280;44652;49.040;12.126;2023-11-18T19:36:25;98014.66;;;3.48;100.00
58875;BME280;44652;49.040;12.126;2023-11-18T19:38:52;98029.69;;;3.66;100.00
58875;BME280;44652;49.040;12.126;2023-11-18T19:41:18;98012.72;;;3.58;100.00
58875;BME280;44652;49.040;12.126;2023-11-18T19:43:45;97997.94;;;3.44;100.00
58875;BME280;44652;49.040;12.126;2023-11-18T19:46:12;97985.56;;;3.40;100.00
58875;BME280;44652;49.040;12.126;2023-11-18T19:48:39;97987.72;;;3.47;100.00
58875;BME280;44652;49.040;12.126;2023-11-18T19:51:05;98006.34;;;3.68;100.00
58875;BME280;44652;49.040;12.126;2023-11-18T19:53:34;97993.31;;;3.53;100.00
58875;BME280;44652;49.040;12.126;2023-11-18T19:56:01;97997.34;;;3.63;100.00
58875;BME280;44652;49.040;12.126;2023-11-18T19:58:28;97986.00;;;3.48;100.00
58875;BME280;44652;49.040;12.126;2023-11-18T20:00:54;97990.06;;;3.57;100.00
58875;BME280;44652;49.040;12.126;2023-11-18T20:03:22;97993.13;;;3.50;100.00
58875;BME280;44652;49.040;12.126;2023-11-18T20:05:49;98006.41;;;3.55;100.00
58875;BME280;44652;49.040;12.126;2023-11-18T20:08:16;97995.47;;;3.60;100.00
58875;BME280;44652;49.040;12.126;2023-11-18T20:10:45;98014.97;;;3.82;100.00
58875;BME280;44652;49.040;12.126;2023-11-18T20:13:14;97994.91;;;3.66;100.00
58875;BME280;44652;49.040;12.126;2023-11-18T20:15:41;98014.78;;;3.64;100.00
58875;BME280;44652;49.040;12.126;2023-11-18T20:18:08;98009.72;;;3.67;100.00
58875;BME280;44652;49.040;12.126;2023-11-18T20:20:38;97987.72;;;3.62;100.00
58875;BME280;44652;49.040;12.126;2023-11-18T20:23:05;97997.34;;;3.63;100.00
58875;BME280;44652;49.040;12.126;2023-11-18T20:25:32;97979.47;;;3.69;100.00
58875;BME280;44652;49.040;12.126;2023-11-18T20:28:00;97992.13;;;3.78;100.00
58875;BME280;44652;49.040;12.126;2023-11-18T20:30:27;98000.84;;;3.63;100.00
58875;BME280;44652;49.040;12.126;2023-11-18T20:32:53;97978.75;;;3.57;100.00
58875;BME280;44652;49.040;12.126;2023-11-18T20:35:23;97976.41;;;3.61;100.00
58875;BME280;44652;49.040;12.126;2023-11-18T20:37:51;97973.88;;;3.63;100.00
58875;BME280;44652;49.040;12.126;2023-11-18T20:40:18;97955.47;;;3.60;100.00
58875;BME280;44652;49.040;12.126;2023-11-18T20:42:48;97973.44;;;3.70;100.00
58875;BME280;44652;49.040;12.126;2023-11-18T20:45:15;97974.88;;;3.65;100.00
58875;BME280;44652;49.040;12.126;2023-11-18T20:47:45;97943.78;;;3.38;100.00
58875;BME280;44652;49.040;12.126;2023-11-18T20:50:13;97955.63;;;3.63;100.00
58875;BME280;44652;49.040;12.126;2023-11-18T20:52:41;97936.06;;;3.55;100.00
58875;BME280;44652;49.040;12.126;2023-11-18T20:55:09;97917.75;;;3.53;100.00
58875;BME280;44652;49.040;12.126;2023-11-18T20:57:38;97910.38;;;3.31;100.00
58875;BME280;44652;49.040;12.126;2023-11-18T21:00:06;97898.34;;;3.33;100.00
58875;BME280;44652;49.040;12.126;2023-11-18T21:02:34;97886.22;;;3.34;100.00
58875;BME280;44652;49.040;12.126;2023-11-18T21:05:03;97902.19;;;3.40;100.00
58875;BME280;44652;49.040;12.126;2023-11-18T21:07:32;97880.91;;;3.32;100.00
58875;BME280;44652;49.040;12.126;2023-11-18T21:09:59;97882.53;;;3.45;100.00
58875;BME280;44652;49.040;12.126;2023-11-18T21:12:26;97864.94;;;3.41;100.00
58875;BME280;44652;49.040;12.126;2023-11-18T21:14:52;97858.44;;;3.49;100.00
58875;BME280;44652;49.040;12.126;2023-11-18T21:17:19;97834.28;;;3.37;100.00
58875;BME280;44652;49.040;12.126;2023-11-18T21:19:51;97837.88;;;3.24;100.00
58875;BME280;44652;49.040;12.126;2023-11-18T21:22:22;97840.13;;;3.33;100.00
58875;BME280;44652;49.040;12.126;2023-11-18T21:24:50;97819.91;;;3.29;100.00
58875;BME280;44652;49.040;12.126;2023-11-18T21:27:17;97811.38;;;3.31;100.00
58875;BME280;44652;49.040;12.126;2023-11-18T21:29:44;97843.09;;;3.39;100.00
58875;BME280;44652;49.040;12.126;2023-11-18T21:32:12;97830.44;;;3.30;100.00
58875;BME280;44652;49.040;12.126;2023-11-18T21:34:39;97845.44;;;3.34;100.00
58875;BME280;44652;49.040;12.126;2023-11-18T21:37:07;97861.84;;;3.48;100.00
58875;BME280;44652;49.040;12.126;2023-11-18T21:39:37;97847.84;;;3.31;100.00
58875;BME280;44652;49.040;12.126;2023-11-18T21:42:07;97876.31;;;3.43;100.00
58875;BME280;44652;49.040;12.126;2023-11-18T21:44:35;97857.19;;;3.42;100.00
58875;BME280;44652;49.040;12.126;2023-11-18T21:47:02;97829.44;;;3.28;100.00
58875;BME280;44652;49.040;12.126;2023-11-18T21:49:29;97844.25;;;3.44;100.00
58875;BME280;44652;49.040;12.126;2023-11-18T21:51:56;97813.28;;;3.34;100.00
58875;BME280;44652;49.040;12.126;2023-11-18T21:54:22;97858.53;;;3.51;100.00
58875;BME280;44652;49.040;12.126;2023-11-18T21:56:51;97835.97;;;3.51;100.00
58875;BME280;44652;49.040;12.126;2023-11-18T21:59:18;97836.06;;;3.53;100.00
58875;BME280;44652;49.040;12.126;2023-11-18T22:01:45;97842.72;;;3.48;100.00
58875;BME280;44652;49.040;12.126;2023-11-18T22:04:12;97823.69;;;3.34;100.00
58875;BME280;44652;49.040;12.126;2023-11-18T22:06:38;97835.25;;;3.54;100.00
58875;BME280;44652;49.040;12.126;2023-11-18T22:09:05;97845.28;;;3.62;100.00
58875;BME280;44652;49.040;12.126;2023-11-18T22:11:32;97819.66;;;3.39;100.00
58875;BME280;44652;49.040;12.126;2023-11-18T22:14:01;97821.59;;;3.43;100.00
58875;BME280;44652;49.040;12.126;2023-11-18T22:16:29;97792.41;;;3.49;100.00
58875;BME280;44652;49.040;12.126;2023-11-18T22:18:56;97811.63;;;3.51;100.00
58875;BME280;44652;49.040;12.126;2023-11-18T22:21:23;97770.22;;;3.40;100.00
58875;BME280;44652;49.040;12.126;2023-11-18T22:23:50;97750.03;;;3.36;100.00
58875;BME280;44652;49.040;12.126;2023-11-18T22:26:16;97764.59;;;3.64;100.00
58875;BME280;44652;49.040;12.126;2023-11-18T22:28:43;97766.91;;;3.43;100.00
58875;BME280;44652;49.040;12.126;2023-11-18T22:31:11;97749.06;;;3.34;100.00
58875;BME280;44652;49.040;12.126;2023-11-18T22:33:38;97734.84;;;3.29;100.00
58875;BME280;44652;49.040;12.126;2023-11-18T22:36:05;97753.69;;;3.40;100.00
58875;BME280;44652;49.040;12.126;2023-11-18T22:38:34;97736.88;;;3.19;100.00
58875;BME280;44652;49.040;12.126;2023-11-18T22:41:00;97770.97;;;3.38;100.00
58875;BME280;44652;49.040;12.126;2023-11-18T22:43:30;97771.41;;;3.46;100.00
58875;BME280;44652;49.040;12.126;2023-11-18T22:45:57;97775.44;;;3.40;100.00
58875;BME280;44652;49.040;12.126;2023-11-18T22:48:24;97726.91;;;3.26;100.00
58875;BME280;44652;49.040;12.126;2023-11-18T22:50:52;97699.03;;;3.25;100.00
58875;BME280;44652;49.040;12.126;2023-11-18T22:53:19;97704.94;;;3.37;100.00
58875;BME280;44652;49.040;12.126;2023-11-18T22:55:46;97717.16;;;3.38;100.00
58875;BME280;44652;49.040;12.126;2023-11-18T22:58:14;97705.75;;;3.36;100.00
58875;BME280;44652;49.040;12.126;2023-11-18T23:00:41;97733.31;;;3.33;100.00
58875;BME280;44652;49.040;12.126;2023-11-18T23:03:18;97703.94;;;3.19;100.00
58875;BME280;44652;49.040;12.126;2023-11-18T23:05:45;97712.41;;;3.31;100.00
58875;BME280;44652;49.040;12.126;2023-11-18T23:08:12;97702.53;;;3.26;100.00
58875;BME280;44652;49.040;12.126;2023-11-18T23:10:48;97705.31;;;3.29;100.00
58875;BME280;44652;49.040;12.126;2023-11-18T23:13:15;97719.75;;;3.38;100.00
58875;BME280;44652;49.040;12.126;2023-11-18T23:15:44;97718.41;;;3.45;100.00
58875;BME280;44652;49.040;12.126;2023-11-18T23:18:11;97705.50;;;3.32;100.00
58875;BME280;44652;49.040;12.126;2023-11-18T23:20:38;97718.41;;;3.45;100.00
58875;BME280;44652;49.040;12.126;2023-11-18T23:23:05;97698.50;;;3.31;100.00
58875;BME280;44652;49.040;12.126;2023-11-18T23:25:32;97708.63;;;3.41;100.00
